Portada
METAR-TAF:

METAR-TAF

Aeropuertos :

Aeropuerto Internacional Philip S. W. Goldson

Ciudad de Belice, Belice

latitud: 17-32N, longitud: 088-18W, altitud: 5 m

Observación

El informe se hizo hace 28 minutos, a las 00:00 UTC
Viento 9 kt del este
Temperatura 31°C
Humedad 79%
Presión 1012 hPa
Visibilidad 10 km o más
Nubes dispersas a una altura de 1800 ft

METAR: MZBZ 290000Z 09009KT 9999 SCT018 31/27 A2991 Q1012 NOSIG RMK FU-W/SE

Hora: 18:28 (00:28 UTC)

Pronóstico

El informe se hizo hace 3 horas y 13 minutos, a las 21:15 UTC
Pronóstico válido del 29 a las 00 UTC al 29 a las 24 UTC
Viento 8 kt del este
Visibilidad 10 km o más
Nubes dispersas a una altura de 2400 ft

TAF: MZBZ 282115Z 2900/2924 09008KT 9999 SCT024

Observaciones y pronósticos meteorológicos de más de 4000 aeropuertos (mensajes METAR y TAF).

Los puntos amarillos y rojos representan las estaciones disponibles.

Ponga el ratón en el punto deseado para ver el nombre de la estación.

Haga clic para ver las observaciones y los pronósticos meteorológicos.

Para cambiar el mapa : haga clic en los botones verdes con una cruz de color negro para hacer un zoom, en el botón verde con un guión para alejar o en las flechas verdes para mapas adyacentes.


METAR-TAF: